sensor_id;sensor_type;location;lat;lon;timestamp;temperature;humidity
63899;HTU21D;50070;-32.946;-60.652;2024-02-26T00:00:07;23.23;118.99
63899;HTU21D;50070;-32.946;-60.652;2024-02-26T00:02:38;23.32;118.99
63899;HTU21D;50070;-32.946;-60.652;2024-02-26T00:05:06;23.31;118.99
63899;HTU21D;50070;-32.946;-60.652;2024-02-26T00:07:33;23.24;118.99
63899;HTU21D;50070;-32.946;-60.652;2024-02-26T00:10:00;23.22;118.99
63899;HTU21D;50070;-32.946;-60.652;2024-02-26T00:12:27;23.31;118.99
63899;HTU21D;50070;-32.946;-60.652;2024-02-26T00:14:53;23.27;118.99
63899;HTU21D;50070;-32.946;-60.652;2024-02-26T00:17:20;23.30;118.99
63899;HTU21D;50070;-32.946;-60.652;2024-02-26T00:19:47;23.25;118.99
63899;HTU21D;50070;-32.946;-60.652;2024-02-26T00:22:13;23.24;118.99
63899;HTU21D;50070;-32.946;-60.652;2024-02-26T00:24:41;23.29;118.99
63899;HTU21D;50070;-32.946;-60.652;2024-02-26T00:27:07;23.35;118.99
63899;HTU21D;50070;-32.946;-60.652;2024-02-26T00:29:34;23.36;118.99
63899;HTU21D;50070;-32.946;-60.652;2024-02-26T00:32:01;23.28;118.99
63899;HTU21D;50070;-32.946;-60.652;2024-02-26T00:34:28;23.27;118.99
63899;HTU21D;50070;-32.946;-60.652;2024-02-26T00:36:55;23.24;118.99
63899;HTU21D;50070;-32.946;-60.652;2024-02-26T00:39:21;23.27;118.99
63899;HTU21D;50070;-32.946;-60.652;2024-02-26T00:41:48;23.25;118.99
63899;HTU21D;50070;-32.946;-60.652;2024-02-26T00:44:17;23.17;118.99
63899;HTU21D;50070;-32.946;-60.652;2024-02-26T00:46:44;23.26;118.99
63899;HTU21D;50070;-32.946;-60.652;2024-02-26T00:49:11;23.27;118.99
63899;HTU21D;50070;-32.946;-60.652;2024-02-26T00:51:38;23.23;118.99
63899;HTU21D;50070;-32.946;-60.652;2024-02-26T00:54:04;23.24;118.99
63899;HTU21D;50070;-32.946;-60.652;2024-02-26T00:56:31;23.27;118.99
63899;HTU21D;50070;-32.946;-60.652;2024-02-26T00:58:58;23.30;118.99
63899;HTU21D;50070;-32.946;-60.652;2024-02-26T01:01:25;23.24;118.99
63899;HTU21D;50070;-32.946;-60.652;2024-02-26T01:03:52;23.35;118.99
63899;HTU21D;50070;-32.946;-60.652;2024-02-26T01:06:19;23.42;118.99
63899;HTU21D;50070;-32.946;-60.652;2024-02-26T01:08:45;23.32;118.99
63899;HTU21D;50070;-32.946;-60.652;2024-02-26T01:11:12;23.27;118.99
63899;HTU21D;50070;-32.946;-60.652;2024-02-26T01:13:39;23.28;118.99
63899;HTU21D;50070;-32.946;-60.652;2024-02-26T01:16:06;23.38;118.99
63899;HTU21D;50070;-32.946;-60.652;2024-02-26T01:18:33;23.32;118.99
63899;HTU21D;50070;-32.946;-60.652;2024-02-26T01:21:00;23.34;118.99
63899;HTU21D;50070;-32.946;-60.652;2024-02-26T01:23:26;23.36;118.99
63899;HTU21D;50070;-32.946;-60.652;2024-02-26T01:25:53;23.25;118.99
63899;HTU21D;50070;-32.946;-60.652;2024-02-26T01:28:20;23.27;118.99
63899;HTU21D;50070;-32.946;-60.652;2024-02-26T01:30:47;23.36;118.99
63899;HTU21D;50070;-32.946;-60.652;2024-02-26T01:33:13;23.26;118.99
63899;HTU21D;50070;-32.946;-60.652;2024-02-26T01:35:40;23.30;118.99
63899;HTU21D;50070;-32.946;-60.652;2024-02-26T01:38:07;23.25;118.99
63899;HTU21D;50070;-32.946;-60.652;2024-02-26T01:40:34;23.26;118.99
63899;HTU21D;50070;-32.946;-60.652;2024-02-26T01:43:02;23.29;118.99
63899;HTU21D;50070;-32.946;-60.652;2024-02-26T01:45:29;23.39;118.99
63899;HTU21D;50070;-32.946;-60.652;2024-02-26T01:47:56;23.43;118.99
63899;HTU21D;50070;-32.946;-60.652;2024-02-26T01:50:24;23.52;118.99
63899;HTU21D;50070;-32.946;-60.652;2024-02-26T01:52:51;23.43;118.99
63899;HTU21D;50070;-32.946;-60.652;2024-02-26T01:55:20;23.49;118.99
63899;HTU21D;50070;-32.946;-60.652;2024-02-26T01:57:49;23.43;118.99
63899;HTU21D;50070;-32.946;-60.652;2024-02-26T02:00:18;23.43;118.99
63899;HTU21D;50070;-32.946;-60.652;2024-02-26T02:02:44;23.45;118.99
63899;HTU21D;50070;-32.946;-60.652;2024-02-26T02:05:12;23.51;118.99
63899;HTU21D;50070;-32.946;-60.652;2024-02-26T02:07:41;23.36;118.99
63899;HTU21D;50070;-32.946;-60.652;2024-02-26T02:10:08;23.43;118.99
63899;HTU21D;50070;-32.946;-60.652;2024-02-26T02:12:35;23.50;118.99
63899;HTU21D;50070;-32.946;-60.652;2024-02-26T02:15:06;23.55;118.99
63899;HTU21D;50070;-32.946;-60.652;2024-02-26T02:17:33;23.62;118.99
63899;HTU21D;50070;-32.946;-60.652;2024-02-26T02:20:00;23.55;118.99
63899;HTU21D;50070;-32.946;-60.652;2024-02-26T02:22:28;23.53;118.99
63899;HTU21D;50070;-32.946;-60.652;2024-02-26T02:24:55;23.59;118.99
63899;HTU21D;50070;-32.946;-60.652;2024-02-26T02:27:21;23.50;118.99
63899;HTU21D;50070;-32.946;-60.652;2024-02-26T02:29:48;23.47;118.99
63899;HTU21D;50070;-32.946;-60.652;2024-02-26T02:32:16;23.46;118.99
63899;HTU21D;50070;-32.946;-60.652;2024-02-26T02:34:44;23.47;118.99
63899;HTU21D;50070;-32.946;-60.652;2024-02-26T02:37:11;23.53;118.99
63899;HTU21D;50070;-32.946;-60.652;2024-02-26T02:39:38;23.46;118.99
63899;HTU21D;50070;-32.946;-60.652;2024-02-26T02:42:05;23.39;118.99
63899;HTU21D;50070;-32.946;-60.652;2024-02-26T02:44:32;23.51;118.99
63899;HTU21D;50070;-32.946;-60.652;2024-02-26T02:46:59;23.52;118.99
63899;HTU21D;50070;-32.946;-60.652;2024-02-26T02:49:25;23.54;118.99
63899;HTU21D;50070;-32.946;-60.652;2024-02-26T02:51:52;23.47;118.99
63899;HTU21D;50070;-32.946;-60.652;2024-02-26T02:54:20;23.44;118.99
63899;HTU21D;50070;-32.946;-60.652;2024-02-26T02:56:47;23.41;118.99
63899;HTU21D;50070;-32.946;-60.652;2024-02-26T02:59:14;23.44;118.99
63899;HTU21D;50070;-32.946;-60.652;2024-02-26T03:01:40;23.40;118.99
63899;HTU21D;50070;-32.946;-60.652;2024-02-26T03:04:07;23.50;118.99
63899;HTU21D;50070;-32.946;-60.652;2024-02-26T03:06:34;23.44;118.99
63899;HTU21D;50070;-32.946;-60.652;2024-02-26T03:09:01;23.56;118.99
63899;HTU21D;50070;-32.946;-60.652;2024-02-26T03:11:28;23.46;118.99
63899;HTU21D;50070;-32.946;-60.652;2024-02-26T03:13:55;23.47;118.99
63899;HTU21D;50070;-32.946;-60.652;2024-02-26T03:16:22;23.44;118.99
63899;HTU21D;50070;-32.946;-60.652;2024-02-26T03:18:48;23.35;118.99
63899;HTU21D;50070;-32.946;-60.652;2024-02-26T03:21:15;23.38;118.99
63899;HTU21D;50070;-32.946;-60.652;2024-02-26T03:23:42;23.43;118.99
63899;HTU21D;50070;-32.946;-60.652;2024-02-26T03:26:09;23.44;118.99
63899;HTU21D;50070;-32.946;-60.652;2024-02-26T03:28:40;23.45;118.99
63899;HTU21D;50070;-32.946;-60.652;2024-02-26T03:31:06;23.40;118.99
63899;HTU21D;50070;-32.946;-60.652;2024-02-26T03:33:34;23.38;118.99
63899;HTU21D;50070;-32.946;-60.652;2024-02-26T03:36:01;23.44;118.99
63899;HTU21D;50070;-32.946;-60.652;2024-02-26T03:38:29;23.37;118.99
63899;HTU21D;50070;-32.946;-60.652;2024-02-26T03:40:56;23.31;118.99
63899;HTU21D;50070;-32.946;-60.652;2024-02-26T03:43:23;23.26;118.99
63899;HTU21D;50070;-32.946;-60.652;2024-02-26T03:45:50;23.34;118.99
63899;HTU21D;50070;-32.946;-60.652;2024-02-26T03:48:16;23.39;118.99
63899;HTU21D;50070;-32.946;-60.652;2024-02-26T03:50:43;23.50;118.99
63899;HTU21D;50070;-32.946;-60.652;2024-02-26T03:53:10;23.49;118.99
63899;HTU21D;50070;-32.946;-60.652;2024-02-26T03:55:38;23.54;118.99
63899;HTU21D;50070;-32.946;-60.652;2024-02-26T03:58:07;23.55;118.99
63899;HTU21D;50070;-32.946;-60.652;2024-02-26T04:00:35;23.57;118.99
63899;HTU21D;50070;-32.946;-60.652;2024-02-26T04:03:01;23.53;118.99
63899;HTU21D;50070;-32.946;-60.652;2024-02-26T04:05:28;23.53;118.99
63899;HTU21D;50070;-32.946;-60.652;2024-02-26T04:07:55;23.53;118.99
63899;HTU21D;50070;-32.946;-60.652;2024-02-26T04:10:22;23.53;118.99
63899;HTU21D;50070;-32.946;-60.652;2024-02-26T04:12:49;23.57;118.99
63899;HTU21D;50070;-32.946;-60.652;2024-02-26T04:15:15;23.55;118.99
63899;HTU21D;50070;-32.946;-60.652;2024-02-26T04:17:42;23.44;118.99
63899;HTU21D;50070;-32.946;-60.652;2024-02-26T04:20:14;23.47;118.99
63899;HTU21D;50070;-32.946;-60.652;2024-02-26T04:22:41;23.51;118.99
63899;HTU21D;50070;-32.946;-60.652;2024-02-26T04:25:09;23.56;118.99
63899;HTU21D;50070;-32.946;-60.652;2024-02-26T04:27:36;23.49;118.99
63899;HTU21D;50070;-32.946;-60.652;2024-02-26T04:30:03;23.52;118.99
63899;HTU21D;50070;-32.946;-60.652;2024-02-26T04:32:30;23.57;118.99
63899;HTU21D;50070;-32.946;-60.652;2024-02-26T04:34:57;23.59;118.99
63899;HTU21D;50070;-32.946;-60.652;2024-02-26T04:37:24;23.68;118.99
63899;HTU21D;50070;-32.946;-60.652;2024-02-26T04:39:50;23.55;118.99
63899;HTU21D;50070;-32.946;-60.652;2024-02-26T04:42:17;23.35;118.99
63899;HTU21D;50070;-32.946;-60.652;2024-02-26T04:44:43;23.46;118.99
63899;HTU21D;50070;-32.946;-60.652;2024-02-26T04:47:10;23.50;118.99
63899;HTU21D;50070;-32.946;-60.652;2024-02-26T04:49:37;23.57;118.99
63899;HTU21D;50070;-32.946;-60.652;2024-02-26T04:52:04;23.64;118.99
63899;HTU21D;50070;-32.946;-60.652;2024-02-26T04:54:31;23.62;118.99
63899;HTU21D;50070;-32.946;-60.652;2024-02-26T04:56:58;23.57;118.99
63899;HTU21D;50070;-32.946;-60.652;2024-02-26T04:59:25;23.59;118.99
63899;HTU21D;50070;-32.946;-60.652;2024-02-26T05:01:51;23.52;118.99
63899;HTU21D;50070;-32.946;-60.652;2024-02-26T05:04:19;23.42;118.99
63899;HTU21D;50070;-32.946;-60.652;2024-02-26T05:06:46;23.53;118.99
63899;HTU21D;50070;-32.946;-60.652;2024-02-26T05:09:12;23.49;118.99
63899;HTU21D;50070;-32.946;-60.652;2024-02-26T05:11:39;23.44;118.99
63899;HTU21D;50070;-32.946;-60.652;2024-02-26T05:14:06;23.44;118.99
63899;HTU21D;50070;-32.946;-60.652;2024-02-26T05:16:33;23.43;118.99
63899;HTU21D;50070;-32.946;-60.652;2024-02-26T05:19:00;23.42;118.99
63899;HTU21D;50070;-32.946;-60.652;2024-02-26T05:21:27;23.39;118.99
63899;HTU21D;50070;-32.946;-60.652;2024-02-26T05:23:54;23.38;118.99
63899;HTU21D;50070;-32.946;-60.652;2024-02-26T05:26:21;23.43;118.99
63899;HTU21D;50070;-32.946;-60.652;2024-02-26T05:28:49;23.41;118.99
63899;HTU21D;50070;-32.946;-60.652;2024-02-26T05:31:17;23.55;118.99
63899;HTU21D;50070;-32.946;-60.652;2024-02-26T05:33:44;23.57;118.99
63899;HTU21D;50070;-32.946;-60.652;2024-02-26T05:36:18;23.55;118.99
63899;HTU21D;50070;-32.946;-60.652;2024-02-26T05:38:45;23.47;118.99
63899;HTU21D;50070;-32.946;-60.652;2024-02-26T05:41:12;23.47;118.99
63899;HTU21D;50070;-32.946;-60.652;2024-02-26T05:43:40;23.49;118.99
63899;HTU21D;50070;-32.946;-60.652;2024-02-26T05:46:07;23.30;118.99
63899;HTU21D;50070;-32.946;-60.652;2024-02-26T05:48:34;23.36;118.99
63899;HTU21D;50070;-32.946;-60.652;2024-02-26T05:51:01;23.36;118.99
63899;HTU21D;50070;-32.946;-60.652;2024-02-26T05:53:28;23.36;118.99
63899;HTU21D;50070;-32.946;-60.652;2024-02-26T05:55:54;23.26;118.99
63899;HTU21D;50070;-32.946;-60.652;2024-02-26T05:58:21;23.27;118.99
63899;HTU21D;50070;-32.946;-60.652;2024-02-26T06:00:48;23.39;118.99
63899;HTU21D;50070;-32.946;-60.652;2024-02-26T06:03:15;23.31;118.99
63899;HTU21D;50070;-32.946;-60.652;2024-02-26T06:05:42;23.39;118.99
63899;HTU21D;50070;-32.946;-60.652;2024-02-26T06:08:09;23.55;118.99
63899;HTU21D;50070;-32.946;-60.652;2024-02-26T06:10:36;23.58;118.99
63899;HTU21D;50070;-32.946;-60.652;2024-02-26T06:13:03;23.56;118.99
63899;HTU21D;50070;-32.946;-60.652;2024-02-26T06:15:30;23.44;118.99
63899;HTU21D;50070;-32.946;-60.652;2024-02-26T06:17:57;23.43;118.99
63899;HTU21D;50070;-32.946;-60.652;2024-02-26T06:20:23;23.41;118.99
63899;HTU21D;50070;-32.946;-60.652;2024-02-26T06:22:51;23.54;118.99
63899;HTU21D;50070;-32.946;-60.652;2024-02-26T06:25:18;23.49;118.99
63899;HTU21D;50070;-32.946;-60.652;2024-02-26T06:27:44;23.36;118.99
63899;HTU21D;50070;-32.946;-60.652;2024-02-26T06:30:11;23.46;118.99
63899;HTU21D;50070;-32.946;-60.652;2024-02-26T06:32:38;23.42;118.99
63899;HTU21D;50070;-32.946;-60.652;2024-02-26T06:35:05;23.27;118.99
63899;HTU21D;50070;-32.946;-60.652;2024-02-26T06:37:35;23.38;118.99
63899;HTU21D;50070;-32.946;-60.652;2024-02-26T06:40:02;23.29;118.99
63899;HTU21D;50070;-32.946;-60.652;2024-02-26T06:42:35;23.34;118.99
63899;HTU21D;50070;-32.946;-60.652;2024-02-26T06:45:03;23.08;118.99
63899;HTU21D;50070;-32.946;-60.652;2024-02-26T06:47:30;23.02;118.99
63899;HTU21D;50070;-32.946;-60.652;2024-02-26T06:49:57;23.02;118.99
63899;HTU21D;50070;-32.946;-60.652;2024-02-26T06:52:24;23.00;118.99
63899;HTU21D;50070;-32.946;-60.652;2024-02-26T06:54:51;23.12;118.99
63899;HTU21D;50070;-32.946;-60.652;2024-02-26T06:57:21;23.00;118.99
63899;HTU21D;50070;-32.946;-60.652;2024-02-26T06:59:48;23.01;118.99
63899;HTU21D;50070;-32.946;-60.652;2024-02-26T07:02:15;23.14;118.99
63899;HTU21D;50070;-32.946;-60.652;2024-02-26T07:04:43;23.09;118.99
63899;HTU21D;50070;-32.946;-60.652;2024-02-26T07:07:10;23.00;118.99
63899;HTU21D;50070;-32.946;-60.652;2024-02-26T07:09:36;23.08;118.99
63899;HTU21D;50070;-32.946;-60.652;2024-02-26T07:12:03;23.10;118.99
63899;HTU21D;50070;-32.946;-60.652;2024-02-26T07:14:30;22.85;118.99
63899;HTU21D;50070;-32.946;-60.652;2024-02-26T07:16:58;22.95;118.99
63899;HTU21D;50070;-32.946;-60.652;2024-02-26T07:19:25;22.96;118.99
63899;HTU21D;50070;-32.946;-60.652;2024-02-26T07:21:52;22.83;118.99
63899;HTU21D;50070;-32.946;-60.652;2024-02-26T07:24:18;22.96;118.99
63899;HTU21D;50070;-32.946;-60.652;2024-02-26T07:26:45;22.97;118.99
63899;HTU21D;50070;-32.946;-60.652;2024-02-26T07:29:12;23.02;118.99
63899;HTU21D;50070;-32.946;-60.652;2024-02-26T07:31:39;23.07;118.99
63899;HTU21D;50070;-32.946;-60.652;2024-02-26T07:34:06;23.09;118.99
63899;HTU21D;50070;-32.946;-60.652;2024-02-26T07:36:32;22.96;118.99
63899;HTU21D;50070;-32.946;-60.652;2024-02-26T07:38:59;23.06;118.99
63899;HTU21D;50070;-32.946;-60.652;2024-02-26T07:41:27;23.03;118.99
63899;HTU21D;50070;-32.946;-60.652;2024-02-26T07:43:55;23.12;118.99
63899;HTU21D;50070;-32.946;-60.652;2024-02-26T07:46:23;22.94;118.99
63899;HTU21D;50070;-32.946;-60.652;2024-02-26T07:48:50;22.97;118.99
63899;HTU21D;50070;-32.946;-60.652;2024-02-26T07:51:16;23.12;118.99
63899;HTU21D;50070;-32.946;-60.652;2024-02-26T07:53:46;23.06;118.99
63899;HTU21D;50070;-32.946;-60.652;2024-02-26T07:56:13;22.99;118.99
63899;HTU21D;50070;-32.946;-60.652;2024-02-26T07:58:39;23.10;118.99
63899;HTU21D;50070;-32.946;-60.652;2024-02-26T08:01:06;23.03;118.99
63899;HTU21D;50070;-32.946;-60.652;2024-02-26T08:03:33;22.65;118.99
63899;HTU21D;50070;-32.946;-60.652;2024-02-26T08:06:01;22.68;118.99
63899;HTU21D;50070;-32.946;-60.652;2024-02-26T08:08:28;22.53;118.99
63899;HTU21D;50070;-32.946;-60.652;2024-02-26T08:10:54;22.60;118.99
63899;HTU21D;50070;-32.946;-60.652;2024-02-26T08:13:21;22.58;118.99
63899;HTU21D;50070;-32.946;-60.652;2024-02-26T08:15:47;22.61;118.99
63899;HTU21D;50070;-32.946;-60.652;2024-02-26T08:18:13;22.53;118.99
63899;HTU21D;50070;-32.946;-60.652;2024-02-26T08:20:40;22.55;118.99
63899;HTU21D;50070;-32.946;-60.652;2024-02-26T08:23:07;22.62;118.99
63899;HTU21D;50070;-32.946;-60.652;2024-02-26T08:25:34;22.67;118.99
63899;HTU21D;50070;-32.946;-60.652;2024-02-26T08:28:01;22.55;118.99
63899;HTU21D;50070;-32.946;-60.652;2024-02-26T08:30:27;22.51;118.99
63899;HTU21D;50070;-32.946;-60.652;2024-02-26T08:32:54;22.47;118.99
63899;HTU21D;50070;-32.946;-60.652;2024-02-26T08:35:21;22.53;118.99
63899;HTU21D;50070;-32.946;-60.652;2024-02-26T08:37:48;22.52;118.99
63899;HTU21D;50070;-32.946;-60.652;2024-02-26T08:40:15;22.42;118.99
63899;HTU21D;50070;-32.946;-60.652;2024-02-26T08:42:42;22.44;118.99
63899;HTU21D;50070;-32.946;-60.652;2024-02-26T08:45:09;22.43;118.99
63899;HTU21D;50070;-32.946;-60.652;2024-02-26T08:47:37;22.63;118.99
63899;HTU21D;50070;-32.946;-60.652;2024-02-26T08:50:04;22.76;118.99
63899;HTU21D;50070;-32.946;-60.652;2024-02-26T08:52:31;22.62;118.99
63899;HTU21D;50070;-32.946;-60.652;2024-02-26T08:54:59;22.58;118.99
63899;HTU21D;50070;-32.946;-60.652;2024-02-26T08:57:26;22.54;118.99
63899;HTU21D;50070;-32.946;-60.652;2024-02-26T08:59:55;22.68;118.99
63899;HTU21D;50070;-32.946;-60.652;2024-02-26T09:02:22;22.61;118.99
63899;HTU21D;50070;-32.946;-60.652;2024-02-26T09:04:49;22.84;118.99
63899;HTU21D;50070;-32.946;-60.652;2024-02-26T09:07:17;22.66;118.99
63899;HTU21D;50070;-32.946;-60.652;2024-02-26T09:09:44;22.80;118.99
63899;HTU21D;50070;-32.946;-60.652;2024-02-26T09:12:11;22.64;118.99
63899;HTU21D;50070;-32.946;-60.652;2024-02-26T09:14:38;22.71;118.99
63899;HTU21D;50070;-32.946;-60.652;2024-02-26T09:17:04;22.69;118.99
63899;HTU21D;50070;-32.946;-60.652;2024-02-26T09:19:33;22.67;118.99
63899;HTU21D;50070;-32.946;-60.652;2024-02-26T09:22:00;22.76;118.99
63899;HTU21D;50070;-32.946;-60.652;2024-02-26T09:24:27;22.75;118.99
63899;HTU21D;50070;-32.946;-60.652;2024-02-26T09:26:54;22.69;118.99
63899;HTU21D;50070;-32.946;-60.652;2024-02-26T09:29:21;22.72;118.99
63899;HTU21D;50070;-32.946;-60.652;2024-02-26T09:31:48;22.77;118.99
63899;HTU21D;50070;-32.946;-60.652;2024-02-26T09:34:15;22.93;118.99
63899;HTU21D;50070;-32.946;-60.652;2024-02-26T09:36:42;23.03;118.99
63899;HTU21D;50070;-32.946;-60.652;2024-02-26T09:39:09;23.00;118.99
63899;HTU21D;50070;-32.946;-60.652;2024-02-26T09:41:37;22.95;118.99
63899;HTU21D;50070;-32.946;-60.652;2024-02-26T09:44:05;22.85;118.99
63899;HTU21D;50070;-32.946;-60.652;2024-02-26T09:46:32;22.95;118.99
63899;HTU21D;50070;-32.946;-60.652;2024-02-26T09:48:59;22.92;118.99
63899;HTU21D;50070;-32.946;-60.652;2024-02-26T09:51:26;22.79;118.99
63899;HTU21D;50070;-32.946;-60.652;2024-02-26T09:53:53;22.70;118.99
63899;HTU21D;50070;-32.946;-60.652;2024-02-26T09:56:21;22.76;118.99
63899;HTU21D;50070;-32.946;-60.652;2024-02-26T09:58:48;22.70;118.99
63899;HTU21D;50070;-32.946;-60.652;2024-02-26T10:01:20;22.77;118.99
63899;HTU21D;50070;-32.946;-60.652;2024-02-26T10:03:52;22.66;118.99
63899;HTU21D;50070;-32.946;-60.652;2024-02-26T10:06:21;22.69;118.99
63899;HTU21D;50070;-32.946;-60.652;2024-02-26T10:08:48;22.52;118.99
63899;HTU21D;50070;-32.946;-60.652;2024-02-26T10:11:15;22.56;118.99
63899;HTU21D;50070;-32.946;-60.652;2024-02-26T10:13:42;22.62;118.99
63899;HTU21D;50070;-32.946;-60.652;2024-02-26T10:16:09;22.55;118.99
63899;HTU21D;50070;-32.946;-60.652;2024-02-26T10:18:52;22.69;118.99
63899;HTU21D;50070;-32.946;-60.652;2024-02-26T10:21:22;22.70;118.99
63899;HTU21D;50070;-32.946;-60.652;2024-02-26T10:23:50;22.66;118.99
63899;HTU21D;50070;-32.946;-60.652;2024-02-26T10:26:20;22.75;118.99
63899;HTU21D;50070;-32.946;-60.652;2024-02-26T10:28:48;22.76;118.99
63899;HTU21D;50070;-32.946;-60.652;2024-02-26T10:31:15;22.63;118.99
63899;HTU21D;50070;-32.946;-60.652;2024-02-26T10:33:43;22.68;118.99
63899;HTU21D;50070;-32.946;-60.652;2024-02-26T10:36:10;22.69;118.99
63899;HTU21D;50070;-32.946;-60.652;2024-02-26T10:38:37;22.67;118.99
63899;HTU21D;50070;-32.946;-60.652;2024-02-26T10:41:09;22.84;118.99
63899;HTU21D;50070;-32.946;-60.652;2024-02-26T10:43:39;22.66;118.99
63899;HTU21D;50070;-32.946;-60.652;2024-02-26T10:46:05;22.63;118.99
63899;HTU21D;50070;-32.946;-60.652;2024-02-26T10:48:33;22.63;118.99
63899;HTU21D;50070;-32.946;-60.652;2024-02-26T10:50:59;22.63;118.99
63899;HTU21D;50070;-32.946;-60.652;2024-02-26T10:53:29;22.64;118.99
63899;HTU21D;50070;-32.946;-60.652;2024-02-26T10:56:05;22.64;118.99
63899;HTU21D;50070;-32.946;-60.652;2024-02-26T10:58:32;22.71;118.99
63899;HTU21D;50070;-32.946;-60.652;2024-02-26T11:00:59;22.78;118.99
63899;HTU21D;50070;-32.946;-60.652;2024-02-26T11:03:26;22.90;118.99
63899;HTU21D;50070;-32.946;-60.652;2024-02-26T11:05:54;22.87;118.99
63899;HTU21D;50070;-32.946;-60.652;2024-02-26T11:08:22;22.75;118.99
63899;HTU21D;50070;-32.946;-60.652;2024-02-26T11:10:53;22.77;118.99
63899;HTU21D;50070;-32.946;-60.652;2024-02-26T11:13:21;22.67;118.99
63899;HTU21D;50070;-32.946;-60.652;2024-02-26T11:15:52;22.63;118.99
63899;HTU21D;50070;-32.946;-60.652;2024-02-26T11:18:23;22.64;118.99
63899;HTU21D;50070;-32.946;-60.652;2024-02-26T11:20:51;22.55;118.99
63899;HTU21D;50070;-32.946;-60.652;2024-02-26T11:23:21;22.55;118.99
63899;HTU21D;50070;-32.946;-60.652;2024-02-26T11:25:49;22.49;118.99
63899;HTU21D;50070;-32.946;-60.652;2024-02-26T11:28:18;22.47;118.99
63899;HTU21D;50070;-32.946;-60.652;2024-02-26T11:30:48;22.56;118.99
63899;HTU21D;50070;-32.946;-60.652;2024-02-26T11:33:16;22.63;118.99
63899;HTU21D;50070;-32.946;-60.652;2024-02-26T11:35:44;22.66;118.99
63899;HTU21D;50070;-32.946;-60.652;2024-02-26T11:38:21;22.62;118.99
63899;HTU21D;50070;-32.946;-60.652;2024-02-26T11:40:50;22.67;118.99
63899;HTU21D;50070;-32.946;-60.652;2024-02-26T11:43:17;22.50;118.99
63899;HTU21D;50070;-32.946;-60.652;2024-02-26T11:48:15;22.68;118.99
63899;HTU21D;50070;-32.946;-60.652;2024-02-26T11:50:48;22.78;118.99
63899;HTU21D;50070;-32.946;-60.652;2024-02-26T11:53:32;22.70;118.99
63899;HTU21D;50070;-32.946;-60.652;2024-02-26T11:58:46;22.62;118.99
63899;HTU21D;50070;-32.946;-60.652;2024-02-26T12:01:42;22.72;118.99
63899;HTU21D;50070;-32.946;-60.652;2024-02-26T12:04:15;22.71;118.99
63899;HTU21D;50070;-32.946;-60.652;2024-02-26T12:06:47;22.52;118.99
63899;HTU21D;50070;-32.946;-60.652;2024-02-26T12:09:37;22.60;118.99
63899;HTU21D;50070;-32.946;-60.652;2024-02-26T12:12:06;22.66;118.99
63899;HTU21D;50070;-32.946;-60.652;2024-02-26T12:14:40;22.55;118.99
63899;HTU21D;50070;-32.946;-60.652;2024-02-26T12:17:19;22.55;118.99
63899;HTU21D;50070;-32.946;-60.652;2024-02-26T12:19:46;22.60;118.99
63899;HTU21D;50070;-32.946;-60.652;2024-02-26T12:22:16;22.58;118.99
63899;HTU21D;50070;-32.946;-60.652;2024-02-26T12:24:46;22.46;118.99
63899;HTU21D;50070;-32.946;-60.652;2024-02-26T12:27:13;22.57;118.99
63899;HTU21D;50070;-32.946;-60.652;2024-02-26T12:29:41;22.49;118.99
63899;HTU21D;50070;-32.946;-60.652;2024-02-26T12:32:08;22.50;118.99
63899;HTU21D;50070;-32.946;-60.652;2024-02-26T12:34:34;22.52;118.99
63899;HTU21D;50070;-32.946;-60.652;2024-02-26T12:37:01;22.53;118.99
63899;HTU21D;50070;-32.946;-60.652;2024-02-26T12:39:28;22.37;118.99
63899;HTU21D;50070;-32.946;-60.652;2024-02-26T12:41:58;22.38;118.99
63899;HTU21D;50070;-32.946;-60.652;2024-02-26T12:44:25;22.34;118.99
63899;HTU21D;50070;-32.946;-60.652;2024-02-26T12:53:17;22.52;118.99
63899;HTU21D;50070;-32.946;-60.652;2024-02-26T12:55:44;22.34;118.99
63899;HTU21D;50070;-32.946;-60.652;2024-02-26T12:58:12;22.35;118.99
63899;HTU21D;50070;-32.946;-60.652;2024-02-26T13:00:39;22.31;118.99
63899;HTU21D;50070;-32.946;-60.652;2024-02-26T13:03:07;22.49;118.99
63899;HTU21D;50070;-32.946;-60.652;2024-02-26T13:05:34;22.38;118.99
63899;HTU21D;50070;-32.946;-60.652;2024-02-26T13:08:01;22.38;118.99
63899;HTU21D;50070;-32.946;-60.652;2024-02-26T13:10:28;22.48;118.99
63899;HTU21D;50070;-32.946;-60.652;2024-02-26T13:12:55;22.61;118.99
63899;HTU21D;50070;-32.946;-60.652;2024-02-26T13:15:23;22.47;118.99
63899;HTU21D;50070;-32.946;-60.652;2024-02-26T13:17:50;22.48;118.99
63899;HTU21D;50070;-32.946;-60.652;2024-02-26T13:20:30;22.60;118.99
63899;HTU21D;50070;-32.946;-60.652;2024-02-26T13:23:03;22.53;118.99
63899;HTU21D;50070;-32.946;-60.652;2024-02-26T13:25:32;22.48;118.99
63899;HTU21D;50070;-32.946;-60.652;2024-02-26T13:28:16;22.60;118.99
63899;HTU21D;50070;-32.946;-60.652;2024-02-26T13:30:53;22.54;118.99
63899;HTU21D;50070;-32.946;-60.652;2024-02-26T13:33:22;22.63;118.99
63899;HTU21D;50070;-32.946;-60.652;2024-02-26T13:35:50;22.65;118.99
63899;HTU21D;50070;-32.946;-60.652;2024-02-26T13:38:17;22.70;118.99
63899;HTU21D;50070;-32.946;-60.652;2024-02-26T13:40:44;22.77;118.99
63899;HTU21D;50070;-32.946;-60.652;2024-02-26T13:43:11;22.77;118.99
63899;HTU21D;50070;-32.946;-60.652;2024-02-26T13:45:38;22.85;118.99
63899;HTU21D;50070;-32.946;-60.652;2024-02-26T13:48:07;22.82;118.99
63899;HTU21D;50070;-32.946;-60.652;2024-02-26T13:50:36;22.58;118.99
63899;HTU21D;50070;-32.946;-60.652;2024-02-26T13:53:03;22.67;118.99
63899;HTU21D;50070;-32.946;-60.652;2024-02-26T13:55:31;22.64;118.99
63899;HTU21D;50070;-32.946;-60.652;2024-02-26T13:57:59;22.60;118.99
63899;HTU21D;50070;-32.946;-60.652;2024-02-26T14:00:30;22.73;118.99
63899;HTU21D;50070;-32.946;-60.652;2024-02-26T14:03:00;22.86;118.99
63899;HTU21D;50070;-32.946;-60.652;2024-02-26T14:05:27;22.77;118.99
63899;HTU21D;50070;-32.946;-60.652;2024-02-26T14:07:53;23.00;118.99
63899;HTU21D;50070;-32.946;-60.652;2024-02-26T14:10:21;23.07;118.99
63899;HTU21D;50070;-32.946;-60.652;2024-02-26T14:12:47;23.00;118.99
63899;HTU21D;50070;-32.946;-60.652;2024-02-26T14:15:14;23.11;118.99
63899;HTU21D;50070;-32.946;-60.652;2024-02-26T14:17:41;23.56;118.99
63899;HTU21D;50070;-32.946;-60.652;2024-02-26T14:20:09;23.53;118.99
63899;HTU21D;50070;-32.946;-60.652;2024-02-26T14:22:35;23.54;118.99
63899;HTU21D;50070;-32.946;-60.652;2024-02-26T14:25:02;23.61;118.99
63899;HTU21D;50070;-32.946;-60.652;2024-02-26T14:27:29;23.59;118.99
63899;HTU21D;50070;-32.946;-60.652;2024-02-26T14:29:56;23.40;118.99
63899;HTU21D;50070;-32.946;-60.652;2024-02-26T14:32:23;23.41;118.99
63899;HTU21D;50070;-32.946;-60.652;2024-02-26T14:34:49;23.53;118.99